| time (UTC) | temp C | wind direction | speed KPH | gust KPH | rain 1hr cm | rain 24hr cm | rain mn cm | humidity % | barometer mb |
| 20260505172926 | 25 | 223 | 3.2 | 8.0 | 0.00 | 0.00 | 0.00 | 47 | 1018.5 |
| 20260505171925 | 25 | 228 | 4.8 | 8.0 | 0.00 | 0.00 | 0.00 | 46 | 1018.6 |
| 20260505170925 | 25 | 180 | 1.6 | 6.4 | 0.00 | 0.00 | 0.00 | 45 | 1018.6 |
| 20260505165025 | 24 | 217 | 1.6 | 4.8 | 0.00 | 0.00 | 0.00 | 49 | 1019.0 |
| 20260505164941 | 24 | 188 | 8.0 | 9.7 | 0.00 | 0.00 | 0.00 | 48 | 1019.0 |
| 20260505163925 | 24 | 154 | 8.0 | 11.3 | 0.00 | 0.00 | 0.00 | 49 | 1019.2 |
| 20260505161926 | 24 | 180 | 9.7 | 12.9 | 0.00 | 0.00 | 0.00 | 48 | 1019.6 |
| 20260505161025 | 23 | 197 | 12.9 | 14.5 | 0.00 | 0.00 | 0.00 | 51 | 1019.5 |
| 20260505153124 | 23 | 180 | 9.7 | 11.3 | 0.00 | 0.00 | 0.00 | 55 | 1019.8 |
| 20260505151224 | 22 | 180 | 6.4 | 8.0 | 0.00 | 0.00 | 0.00 | 59 | 1019.7 |
| 20260505150227 | 22 | 183 | 11.3 | 14.5 | 0.00 | 0.00 | 0.00 | 59 | 1019.7 |
| 20260505150127 | 22 | 175 | 6.4 | 12.9 | 0.00 | 0.00 | 0.00 | 59 | 1019.6 |
| 20260505140324 | 21 | 181 | 8.0 | 11.3 | 0.00 | 0.00 | 0.00 | 66 | 1019.6 |
| 20260505124423 | 16 | 205 | 3.2 | 3.2 | 0.00 | 0.00 | 0.00 | 90 | 1019.6 |
| 20260505123424 | 14 | 180 | 3.2 | 4.8 | 0.00 | 0.00 | 0.00 | 94 | 1019.5 |
| 20260505122424 | 13 | 180 | 3.2 | 3.2 | 0.00 | 0.00 | 0.00 | 96 | 1019.6 |
| 20260505121523 | 12 | 180 | 0.0 | 0.0 | 0.00 | 0.00 | 0.00 | 96 | 1019.5 |
| 20260505120524 | 11 | 180 | 0.0 | 0.0 | 0.00 | 0.00 | 0.00 | 97 | 1019.5 |
| 20260505115525 | 11 | 180 | 0.0 | 0.0 | 0.00 | 0.00 | 0.00 | 97 | 1019.3 |
| 20260505114525 | 10 | 180 | 0.0 | 0.0 | 0.00 | 0.00 | 0.00 | 96 | 1019.1 |
| 20260505113525 | 10 | 180 | 0.0 | 0.0 | 0.00 | 0.00 | 0.00 | 96 | 1019.1 |
| 20260505112525 | 9 | 180 | 0.0 | 0.0 | 0.00 | 0.00 | 0.00 | 96 | 1018.9 |
| 20260505111524 | 9 | 180 | 0.0 | 0.0 | 0.00 | 0.00 | 0.00 | 95 | 1018.8 |
| 20260505110525 | 9 | 180 | 0.0 | 0.0 | 0.00 | 0.00 | 0.00 | 95 | 1018.8 |
| 20260505101624 | 9 | 180 | 0.0 | 0.0 | 0.00 | 0.00 | 0.00 | 95 | 1018.3 |
| 20260505100624 | 10 | 180 | 0.0 | 0.0 | 0.00 | 0.00 | 0.00 | 94 | 1018.1 |
| 20260505094625 | 10 | 180 | 0.0 | 0.0 | 0.00 | 0.00 | 0.00 | 94 | 1018.2 |
| 20260505093724 | 10 | 180 | 0.0 | 0.0 | 0.00 | 0.00 | 0.00 | 95 | 1018.3 |
| 20260505092822 | 10 | 180 | 0.0 | 0.0 | 0.00 | 0.00 | 0.00 | 95 | 1018.0 |
| 20260505090823 | 10 | 180 | 0.0 | 0.0 | 0.00 | 0.00 | 0.00 | 94 | 1017.9 |
| 20260505090725 | 10 | 180 | 0.0 | 0.0 | 0.00 | 0.00 | 0.00 | 95 | 1017.9 |
| 20260505085725 | 10 | 180 | 0.0 | 0.0 | 0.00 | 0.00 | 0.00 | 94 | 1017.9 |
| 20260505084723 | 10 | 180 | 0.0 | 0.0 | 0.00 | 0.00 | 0.00 | 94 | 1017.8 |
| 20260505083723 | 10 | 180 | 0.0 | 0.0 | 0.00 | 0.00 | 0.00 | 93 | 1017.7 |
| 20260505082822 | 10 | 180 | 0.0 | 0.0 | 0.00 | 0.00 | 0.00 | 95 | 1017.6 |
| 20260505081825 | 10 | 180 | 0.0 | 0.0 | 0.00 | 0.00 | 0.00 | 93 | 1017.4 |
| 20260505080825 | 10 | 180 | 0.0 | 0.0 | 0.00 | 0.00 | 0.00 | 93 | 1017.6 |
| 20260505075823 | 10 | 180 | 0.0 | 0.0 | 0.00 | 0.00 | 0.00 | 93 | 1017.6 |
| 20260505074823 | 11 | 180 | 0.0 | 0.0 | 0.00 | 0.00 | 0.00 | 93 | 1017.5 |
| 20260505072822 | 11 | 180 | 0.0 | 0.0 | 0.00 | 0.00 | 0.00 | 92 | 1017.4 |
| 20260505071824 | 11 | 180 | 0.0 | 0.0 | 0.00 | 0.00 | 0.00 | 92 | 1017.5 |
| 20260505070839 | 11 | 180 | 0.0 | 0.0 | 0.00 | 0.00 | 0.00 | 92 | 1017.6 |
| 20260505065924 | 11 | 180 | 0.0 | 0.0 | 0.00 | 0.00 | 0.00 | 91 | 1017.5 |
| 20260505065023 | 11 | 180 | 0.0 | 0.0 | 0.00 | 0.00 | 0.00 | 90 | 1017.6 |
| 20260505064025 | 11 | 180 | 0.0 | 0.0 | 0.00 | 0.00 | 0.00 | 89 | 1017.7 |
| 20260505063025 | 11 | 180 | 0.0 | 0.0 | 0.00 | 0.00 | 0.00 | 88 | 1017.8 |
| 20260505062025 | 12 | 180 | 0.0 | 0.0 | 0.00 | 0.00 | 0.00 | 88 | 1017.9 |
| 20260505054040 | 12 | 180 | 0.0 | 0.0 | 0.00 | 0.00 | 0.00 | 83 | 1018.3 |
| 20260505053124 | 12 | 180 | 0.0 | 0.0 | 0.00 | 0.00 | 0.00 | 84 | 1018.5 |
| 20260505052125 | 13 | 180 | 0.0 | 0.0 | 0.00 | 0.00 | 0.00 | 82 | 1018.6 |
| 20260505051144 | 13 | 180 | 0.0 | 1.6 | 0.00 | 0.00 | 0.00 | 83 | 1018.6 |
| 20260505050145 | 13 | 180 | 0.0 | 1.6 | 0.00 | 0.00 | 0.00 | 83 | 1018.7 |
| 20260505041142 | 13 | 180 | 0.0 | 0.0 | 0.00 | 0.00 | 0.00 | 79 | 1018.8 |
| 20260505040144 | 13 | 360 | 0.0 | 0.0 | 0.00 | 0.00 | 0.00 | 77 | 1018.9 |
| 20260505035241 | 14 | 180 | 0.0 | 0.0 | 0.00 | 0.00 | 0.00 | 75 | 1018.9 |
| 20260505034242 | 15 | 180 | 0.0 | 0.0 | 0.00 | 0.00 | 0.00 | 75 | 1018.9 |
| 20260505033339 | 15 | 180 | 0.0 | 1.6 | 0.00 | 0.00 | 0.00 | 74 | 1019.0 |
| 20260505032341 | 15 | 180 | 0.0 | 0.0 | 0.00 | 0.00 | 0.00 | 72 | 1018.9 |
| 20260505031342 | 15 | 180 | 1.6 | 3.2 | 0.00 | 0.00 | 0.00 | 71 | 1019.0 |
| 20260505030357 | 16 | 180 | 1.6 | 3.2 | 0.00 | 0.00 | 0.00 | 70 | 1018.9 |
| 20260505025340 | 16 | 180 | 3.2 | 4.8 | 0.00 | 0.00 | 0.00 | 69 | 1019.0 |
| 20260505025241 | 16 | 180 | 3.2 | 3.2 | 0.00 | 0.00 | 0.00 | 68 | 1018.9 |
| 20260505024241 | 16 | 180 | 1.6 | 3.2 | 0.00 | 0.00 | 0.00 | 67 | 1019.0 |
| 20260505023339 | 16 | 180 | 3.2 | 4.8 | 0.00 | 0.00 | 0.00 | 65 | 1018.9 |
| 20260505022342 | 16 | 180 | 4.8 | 6.4 | 0.00 | 0.00 | 0.00 | 66 | 1018.9 |
| 20260505022242 | 16 | 180 | 4.8 | 4.8 | 0.00 | 0.00 | 0.00 | 65 | 1018.9 |
| 20260505021242 | 17 | 180 | 3.2 | 4.8 | 0.00 | 0.00 | 0.00 | 65 | 1018.8 |
| 20260505015239 | 17 | 180 | 6.4 | 9.7 | 0.00 | 0.00 | 0.00 | 62 | 1018.7 |
| 20260505014241 | 17 | 180 | 6.4 | 8.0 | 0.00 | 0.00 | 0.00 | 62 | 1018.6 |
| 20260505013242 | 18 | 180 | 4.8 | 9.7 | 0.00 | 0.00 | 0.00 | 61 | 1018.5 |
| 20260505012241 | 18 | 180 | 6.4 | 8.0 | 0.00 | 0.00 | 0.00 | 61 | 1018.6 |
| 20260505011340 | 18 | 180 | 6.4 | 8.0 | 0.00 | 0.00 | 0.00 | 61 | 1018.3 |
| 20260505010340 | 18 | 180 | 11.3 | 12.9 | 0.00 | 0.00 | 0.00 | 61 | 1018.3 |
| 20260505005439 | 18 | 180 | 9.7 | 12.9 | 0.00 | 0.00 | 0.00 | 62 | 1018.1 |
| 20260505004442 | 18 | 202 | 8.0 | 12.9 | 0.00 | 0.00 | 0.00 | 61 | 1018.0 |
| 20260505004340 | 19 | 208 | 8.0 | 9.7 | 0.00 | 0.00 | 0.00 | 61 | 1018.1 |
| 20260505004242 | 19 | 202 | 8.0 | 11.3 | 0.00 | 0.00 | 0.00 | 60 | 1018.1 |
| 20260505003340 | 19 | 180 | 9.7 | 11.3 | 0.00 | 0.00 | 0.00 | 60 | 1017.9 |
| 20260505002340 | 20 | 180 | 11.3 | 12.9 | 0.00 | 0.00 | 0.00 | 58 | 1017.9 |
| 20260505001341 | 20 | 202 | 6.4 | 8.0 | 0.00 | 0.00 | 0.00 | 56 | 1017.9 |
| 20260505000440 | 20 | 202 | 9.7 | 14.5 | 0.00 | 0.00 | 0.00 | 54 | 1017.8 |
| 20260504235442 | 20 | 180 | 11.3 | 12.9 | 0.00 | 0.00 | 0.00 | 52 | 1017.9 |
| 20260504234443 | 20 | 180 | 11.3 | 17.7 | 0.00 | 0.00 | 0.00 | 51 | 1017.7 |
| 20260504233440 | 21 | 180 | 14.5 | 19.3 | 0.00 | 0.00 | 0.00 | 50 | 1017.6 |
| 20260504232441 | 21 | 180 | 14.5 | 14.5 | 0.00 | 0.00 | 0.00 | 50 | 1017.5 |
| 20260504230443 | 22 | 224 | 9.7 | 14.5 | 0.00 | 0.00 | 0.00 | 46 | 1017.5 |
| 20260504225540 | 22 | 182 | 19.3 | 25.7 | 0.00 | 0.00 | 0.00 | 47 | 1017.4 |
| 20260504224541 | 22 | 204 | 14.5 | 17.7 | 0.00 | 0.00 | 0.00 | 46 | 1017.4 |
| 20260504223539 | 22 | 198 | 16.1 | 22.5 | 0.00 | 0.00 | 0.00 | 45 | 1017.4 |
| 20260504223439 | 22 | 200 | 16.1 | 20.9 | 0.00 | 0.00 | 0.00 | 45 | 1017.4 |
| 20260504222441 | 23 | 182 | 14.5 | 17.7 | 0.00 | 0.00 | 0.00 | 43 | 1017.2 |
| 20260504221441 | 23 | 200 | 17.7 | 22.5 | 0.00 | 0.00 | 0.00 | 42 | 1017.2 |
| 20260504220441 | 24 | 199 | 12.9 | 17.7 | 0.00 | 0.00 | 0.00 | 42 | 1017.0 |
| 20260504214557 | 25 | 180 | 17.7 | 20.9 | 0.00 | 0.00 | 0.00 | 38 | 1016.8 |
| 20260504213640 | 25 | 180 | 19.3 | 24.1 | 0.00 | 0.00 | 0.00 | 34 | 1016.8 |
| 20260504212739 | 25 | 180 | 12.9 | 17.7 | 0.00 | 0.00 | 0.00 | 35 | 1016.8 |
| 20260504211739 | 25 | 165 | 11.3 | 14.5 | 0.00 | 0.00 | 0.00 | 34 | 1016.6 |
| 20260504205741 | 26 | 183 | 8.0 | 9.7 | 0.00 | 0.00 | 0.00 | 34 | 1016.8 |
| 20260504205642 | 26 | 180 | 8.0 | 11.3 | 0.00 | 0.00 | 0.00 | 34 | 1016.8 |
| 20260504204641 | 25 | 199 | 6.4 | 9.7 | 0.00 | 0.00 | 0.00 | 33 | 1016.8 |
| 20260504203738 | 25 | 233 | 4.8 | 11.3 | 0.00 | 0.00 | 0.00 | 32 | 1016.9 |
| 20260504202757 | 25 | 202 | 8.0 | 11.3 | 0.00 | 0.00 | 0.00 | 32 | 1017.2 |
| 20260504201741 | 25 | 225 | 11.3 | 12.9 | 0.00 | 0.00 | 0.00 | 33 | 1017.1 |
| 20260504201641 | 25 | 218 | 8.0 | 11.3 | 0.00 | 0.00 | 0.00 | 33 | 1017.2 |
| 20260504200641 | 25 | 180 | 8.0 | 11.3 | 0.00 | 0.00 | 0.00 | 33 | 1017.4 |
| 20260504195655 | 25 | 206 | 6.4 | 9.7 | 0.00 | 0.00 | 0.00 | 33 | 1017.4 |
| 20260504194639 | 25 | 191 | 3.2 | 6.4 | 0.00 | 0.00 | 0.00 | 33 | 1017.5 |
| 20260504193640 | 25 | 197 | 12.9 | 17.7 | 0.00 | 0.00 | 0.00 | 33 | 1017.7 |
| 20260504192641 | 25 | 204 | 12.9 | 16.1 | 0.00 | 0.00 | 0.00 | 31 | 1017.8 |
| 20260504191640 | 25 | 195 | 8.0 | 11.3 | 0.00 | 0.00 | 0.00 | 34 | 1017.9 |
| 20260504190640 | 25 | 202 | 0.0 | 0.0 | 0.00 | 0.00 | 0.00 | 33 | 1018.0 |
| 20260504190540 | 25 | 190 | 1.6 | 4.8 | 0.00 | 0.00 | 0.00 | 34 | 1018.2 |
| 20260504185541 | 25 | 183 | 11.3 | 12.9 | 0.00 | 0.00 | 0.00 | 35 | 1018.2 |
| 20260504184640 | 25 | 201 | 6.4 | 8.0 | 0.00 | 0.00 | 0.00 | 33 | 1018.2 |
| 20260504183638 | 25 | 202 | 12.9 | 14.5 | 0.00 | 0.00 | 0.00 | 34 | 1018.5 |
| 20260504182640 | 24 | 170 | 3.2 | 4.8 | 0.00 | 0.00 | 0.00 | 35 | 1018.7 |
| 20260504181639 | 24 | 129 | 6.4 | 12.9 | 0.00 | 0.00 | 0.00 | 36 | 1018.8 |
| 20260504180639 | 23 | 225 | 0.0 | 4.8 | 0.00 | 0.00 | 0.00 | 34 | 1018.7 |
| 20260504175640 | 24 | 287 | 3.2 | 6.4 | 0.00 | 0.00 | 0.00 | 34 | 1018.8 |
| 20260504174641 | 23 | 45 | 0.0 | 1.6 | 0.00 | 0.00 | 0.00 | 35 | 1018.7 |
| 20260504173740 | 23 | 290 | 0.0 | 3.2 | 0.00 | 0.00 | 0.00 | 36 | 1018.9 |